createdAt,value
2022-12-03T00:00:19.354Z,75.08
2022-12-03T00:02:22.355Z,75.27
2022-12-03T00:04:24.335Z,75.79
2022-12-03T00:06:27.985Z,75.94
2022-12-03T00:08:33.417Z,75.80
2022-12-03T00:10:36.268Z,75.43
2022-12-03T00:12:38.559Z,75.81
2022-12-03T00:14:44.583Z,75.68
2022-12-03T00:16:53.975Z,76.06
2022-12-03T00:18:55.813Z,75.65
2022-12-03T00:20:58.639Z,75.32
2022-12-03T00:23:01.479Z,75.15
2022-12-03T00:25:04.619Z,74.83
2022-12-03T00:27:06.566Z,75.49
2022-12-03T00:29:11.438Z,75.68
2022-12-03T00:31:14.302Z,76.13
2022-12-03T00:33:17.185Z,75.53
2022-12-03T00:35:25.856Z,75.65
2022-12-03T00:37:28.769Z,75.64
2022-12-03T00:39:30.657Z,76.24
2022-12-03T00:41:38.321Z,75.61
2022-12-03T00:43:47.002Z,76.09
2022-12-03T00:45:48.825Z,75.57
2022-12-03T00:47:51.733Z,75.72
2022-12-03T00:49:54.622Z,75.29
2022-12-03T00:51:59.385Z,75.49
2022-12-03T00:54:01.454Z,75.43
2022-12-03T00:56:03.353Z,75.47
2022-12-03T00:58:08.525Z,75.13
2022-12-03T01:00:12.723Z,75.95
2022-12-03T01:02:14.551Z,76.01
2022-12-03T01:04:17.561Z,76.00
2022-12-03T01:06:20.404Z,76.03
2022-12-03T01:08:22.212Z,75.55
2022-12-03T01:10:30.209Z,75.90
2022-12-03T01:12:32.075Z,76.40
2022-12-03T01:14:33.902Z,75.91
2022-12-03T01:16:37.379Z,75.16
2022-12-03T01:18:40.291Z,75.45
2022-12-03T01:20:43.158Z,75.62
2022-12-03T01:22:51.210Z,75.29
2022-12-03T01:24:53.291Z,75.15
2022-12-03T01:26:57.830Z,75.27
2022-12-03T01:29:00.097Z,75.48
2022-12-03T01:31:25.468Z,75.50
2022-12-03T01:33:28.442Z,75.50
2022-12-03T01:35:32.213Z,75.16
2022-12-03T01:37:34.092Z,75.97
2022-12-03T01:39:36.509Z,75.39
2022-12-03T01:41:39.252Z,75.60
2022-12-03T01:43:43.775Z,75.39
2022-12-03T01:45:46.625Z,75.66
2022-12-03T01:47:50.564Z,75.12
2022-12-03T01:50:01.909Z,75.33
2022-12-03T01:52:03.916Z,75.39
2022-12-03T01:54:06.811Z,75.63
2022-12-03T01:56:12.616Z,75.63
2022-12-03T01:58:17.034Z,75.41
2022-12-03T02:00:25.293Z,74.92
2022-12-03T02:02:32.307Z,75.72
2022-12-03T02:04:34.547Z,75.68
2022-12-03T02:06:36.344Z,75.32
2022-12-03T02:08:40.291Z,75.43
2022-12-03T02:10:42.194Z,75.77
2022-12-03T02:13:06.474Z,75.54
2022-12-03T02:15:11.488Z,75.42
2022-12-03T02:17:13.700Z,74.82
2022-12-03T02:19:26.763Z,74.92
2022-12-03T02:21:45.209Z,74.90
2022-12-03T02:23:55.737Z,75.27
2022-12-03T02:25:57.631Z,75.28
2022-12-03T02:28:01.011Z,74.68
2022-12-03T02:30:06.852Z,75.05
2022-12-03T02:32:08.775Z,75.06
2022-12-03T02:34:11.617Z,74.79
2022-12-03T02:36:13.543Z,74.66
2022-12-03T02:38:27.029Z,74.78
2022-12-03T02:40:32.640Z,74.94
2022-12-03T02:42:37.360Z,74.65
2022-12-03T02:44:39.554Z,75.04
2022-12-03T02:46:41.870Z,75.00
2022-12-03T02:48:44.715Z,75.22
2022-12-03T02:50:55.521Z,74.74
2022-12-03T02:53:01.647Z,74.65
2022-12-03T02:55:06.245Z,75.00
2022-12-03T02:57:08.207Z,75.13
2022-12-03T02:59:18.113Z,75.36
2022-12-03T03:01:20.391Z,75.26
2022-12-03T03:03:24.835Z,75.16
2022-12-03T03:05:32.333Z,75.93
2022-12-03T03:07:34.991Z,74.89
2022-12-03T03:09:38.131Z,74.61
2022-12-03T03:11:40.073Z,74.26
2022-12-03T03:13:42.111Z,74.94
2022-12-03T03:15:44.899Z,74.93
2022-12-03T03:17:47.890Z,74.41
2022-12-03T03:19:50.926Z,74.77
2022-12-03T03:21:55.151Z,74.80
2022-12-03T03:23:58.957Z,74.32
2022-12-03T03:26:13.495Z,74.55
2022-12-03T03:28:16.995Z,74.94
2022-12-03T03:30:20.927Z,74.40
2022-12-03T03:32:22.862Z,74.67
2022-12-03T03:34:27.583Z,74.81
2022-12-03T03:36:29.705Z,74.59
2022-12-03T03:38:32.737Z,74.64
2022-12-03T03:40:36.089Z,74.53
2022-12-03T03:42:38.627Z,74.37
2022-12-03T03:44:40.735Z,74.49
2022-12-03T03:46:43.290Z,74.70
2022-12-03T03:48:48.724Z,74.75
2022-12-03T03:50:53.406Z,74.46
2022-12-03T03:52:57.160Z,74.78
2022-12-03T03:54:59.315Z,74.89
2022-12-03T03:57:01.136Z,74.71
2022-12-03T03:59:04.329Z,74.85
2022-12-03T04:01:07.437Z,74.53
2022-12-03T04:03:11.001Z,74.63
2022-12-03T04:05:22.117Z,74.47
2022-12-03T04:07:25.064Z,74.82
2022-12-03T04:09:26.983Z,74.70
2022-12-03T04:11:47.516Z,74.94
2022-12-03T04:13:49.447Z,74.96
2022-12-03T04:15:51.275Z,75.03
2022-12-03T04:18:13.681Z,74.68
2022-12-03T04:20:15.542Z,74.66
2022-12-03T04:22:35.943Z,74.61
2022-12-03T04:24:38.803Z,74.21
2022-12-03T04:26:59.202Z,74.78
2022-12-03T04:29:07.141Z,74.80
2022-12-03T04:31:28.432Z,74.95
2022-12-03T04:33:49.085Z,74.45
2022-12-03T04:35:50.926Z,74.88
2022-12-03T04:37:52.728Z,74.61
2022-12-03T04:39:54.666Z,74.62
2022-12-03T04:42:02.522Z,74.91
2022-12-03T04:44:23.131Z,74.71
2022-12-03T04:46:26.043Z,75.03
2022-12-03T04:48:27.846Z,74.83
2022-12-03T04:50:29.635Z,74.87
2022-12-03T04:52:31.408Z,74.97
2022-12-03T04:54:33.312Z,74.63
2022-12-03T04:56:35.275Z,75.18
2022-12-03T04:58:38.120Z,74.69
2022-12-03T05:00:41.027Z,74.75
2022-12-03T05:02:48.753Z,74.62
2022-12-03T05:04:50.963Z,74.51
2022-12-03T05:06:53.069Z,74.96
2022-12-03T05:08:54.898Z,74.54
2022-12-03T05:10:56.722Z,74.96
2022-12-03T05:12:58.552Z,74.94
2022-12-03T05:15:01.445Z,74.61
2022-12-03T05:17:09.106Z,74.47
2022-12-03T05:19:11.001Z,74.44
2022-12-03T05:21:12.830Z,74.33
2022-12-03T05:23:14.978Z,74.64
2022-12-03T05:25:16.914Z,73.96
2022-12-03T05:27:23.899Z,74.62
2022-12-03T05:29:26.248Z,74.66
2022-12-03T05:31:29.190Z,74.38
2022-12-03T05:33:31.570Z,74.18
2022-12-03T05:35:33.414Z,74.14
2022-12-03T05:37:36.223Z,74.61
2022-12-03T05:39:39.076Z,73.91
2022-12-03T05:41:59.509Z,74.08
2022-12-03T05:44:01.447Z,74.52
2022-12-03T05:46:05.450Z,74.33
2022-12-03T05:48:12.620Z,74.09
2022-12-03T05:50:15.036Z,73.96
2022-12-03T05:52:16.911Z,74.08
2022-12-03T05:54:18.752Z,74.10
2022-12-03T05:56:20.570Z,74.79
2022-12-03T05:58:22.459Z,74.27
2022-12-03T06:00:30.536Z,74.37
2022-12-03T06:02:32.481Z,73.86
2022-12-03T06:04:35.410Z,74.69
2022-12-03T06:06:37.254Z,73.97
2022-12-03T06:08:39.057Z,74.16
2022-12-03T06:10:45.158Z,74.38
2022-12-03T06:12:51.149Z,74.25
2022-12-03T06:14:55.116Z,74.23
2022-12-03T06:16:58.372Z,74.55
2022-12-03T06:19:01.197Z,74.10
2022-12-03T06:21:04.193Z,73.89
2022-12-03T06:23:08.127Z,74.43
2022-12-03T06:25:10.626Z,74.07
2022-12-03T06:27:12.808Z,73.87
2022-12-03T06:29:14.612Z,73.94
2022-12-03T06:31:16.617Z,74.31
2022-12-03T06:33:18.569Z,74.17
2022-12-03T06:35:21.426Z,74.65
2022-12-03T06:37:23.241Z,74.38
2022-12-03T06:39:25.096Z,74.13
2022-12-03T06:41:28.050Z,74.15
2022-12-03T06:43:31.214Z,73.86
2022-12-03T06:45:33.012Z,73.99
2022-12-03T06:47:34.894Z,74.03
2022-12-03T06:49:36.796Z,74.28
2022-12-03T06:51:39.150Z,74.14
2022-12-03T06:53:42.056Z,74.39
2022-12-03T06:55:44.908Z,74.36
2022-12-03T06:57:46.736Z,74.40
2022-12-03T06:59:49.553Z,74.18
2022-12-03T07:01:52.507Z,73.80
2022-12-03T07:03:54.427Z,74.06
2022-12-03T07:05:56.201Z,74.43
2022-12-03T07:07:58.129Z,74.73
2022-12-03T07:10:00.226Z,74.39
2022-12-03T07:12:03.136Z,74.73
2022-12-03T07:14:07.211Z,74.54
2022-12-03T07:16:10.133Z,74.62
2022-12-03T07:18:12.051Z,75.33
2022-12-03T07:20:14.139Z,75.65
2022-12-03T07:22:16.002Z,75.30
2022-12-03T07:24:17.776Z,75.20
2022-12-03T07:26:19.700Z,75.88
2022-12-03T07:28:21.560Z,75.96
2022-12-03T07:30:27.905Z,75.79
2022-12-03T07:32:29.854Z,76.37
2022-12-03T07:34:32.702Z,76.54
2022-12-03T07:36:34.521Z,76.04
2022-12-03T07:38:36.436Z,76.26
2022-12-03T07:40:38.365Z,75.78
2022-12-03T07:42:40.234Z,76.31
2022-12-03T07:44:42.198Z,76.27
2022-12-03T07:46:44.166Z,76.77
2022-12-03T07:48:47.138Z,76.30
2022-12-03T07:50:50.092Z,76.20
2022-12-03T07:52:57.177Z,76.92
2022-12-03T07:54:59.095Z,76.62
2022-12-03T07:57:02.146Z,76.72
2022-12-03T07:59:04.185Z,76.38
2022-12-03T08:01:06.485Z,77.00
2022-12-03T08:03:15.020Z,76.79
2022-12-03T08:05:18.024Z,77.03
2022-12-03T08:07:20.935Z,77.21
2022-12-03T08:09:22.865Z,76.69
2022-12-03T08:11:29.251Z,76.81
2022-12-03T08:13:35.268Z,77.20
2022-12-03T08:15:40.763Z,77.01
2022-12-03T08:17:43.940Z,77.19
2022-12-03T08:19:48.257Z,77.43
2022-12-03T08:21:59.507Z,77.78
2022-12-03T08:24:19.826Z,77.71
2022-12-03T08:26:28.239Z,77.16
2022-12-03T08:28:32.151Z,76.85
2022-12-03T08:30:35.071Z,77.03
2022-12-03T08:32:38.026Z,76.84
2022-12-03T08:34:44.303Z,77.29
2022-12-03T08:36:47.401Z,77.64
2022-12-03T08:38:52.866Z,77.36
2022-12-03T08:40:55.884Z,77.43
2022-12-03T08:42:57.703Z,77.85
2022-12-03T08:45:32.239Z,77.45
2022-12-03T08:47:37.346Z,77.37
2022-12-03T08:49:41.267Z,77.36
2022-12-03T08:51:44.541Z,77.74
2022-12-03T08:54:05.245Z,77.98
2022-12-03T08:56:28.805Z,77.51
2022-12-03T08:58:52.007Z,77.85
2022-12-03T09:01:00.496Z,78.43
2022-12-03T09:03:03.569Z,78.15
2022-12-03T09:05:20.371Z,77.96
2022-12-03T09:07:22.317Z,78.12
2022-12-03T09:09:25.042Z,77.98
2022-12-03T09:11:27.041Z,78.15
2022-12-03T09:13:34.881Z,77.76
2022-12-03T09:15:36.860Z,77.44
2022-12-03T09:17:38.945Z,77.12
2022-12-03T09:19:46.277Z,77.25
2022-12-03T09:21:49.522Z,77.29
2022-12-03T09:23:56.630Z,76.81
2022-12-03T09:26:02.895Z,77.12
2022-12-03T09:28:04.872Z,76.88
2022-12-03T09:30:07.545Z,77.26
2022-12-03T09:32:15.224Z,76.78
2022-12-03T09:34:23.033Z,77.03
2022-12-03T09:36:24.966Z,76.58
2022-12-03T09:38:26.917Z,77.27
2022-12-03T09:40:32.017Z,76.62
2022-12-03T09:42:34.267Z,76.71
2022-12-03T09:44:37.227Z,76.36
2022-12-03T09:46:40.268Z,77.06
2022-12-03T09:48:43.213Z,76.86
2022-12-03T09:50:47.690Z,76.62
2022-12-03T09:52:51.992Z,75.86
2022-12-03T09:55:03.820Z,76.08
2022-12-03T09:57:14.776Z,75.40
2022-12-03T09:59:18.170Z,75.69
2022-12-03T10:01:22.750Z,75.79
2022-12-03T10:03:30.098Z,75.71
2022-12-03T10:05:34.111Z,75.40
2022-12-03T10:07:37.693Z,75.67
2022-12-03T10:09:39.953Z,77.00
2022-12-03T10:11:41.877Z,77.48
2022-12-03T10:13:45.347Z,76.54
2022-12-03T10:15:49.005Z,76.90
2022-12-03T10:17:54.872Z,76.52
2022-12-03T10:19:57.976Z,76.89
2022-12-03T10:22:01.177Z,77.19
2022-12-03T10:24:23.097Z,77.16
2022-12-03T10:26:39.090Z,77.04
2022-12-03T10:28:43.592Z,76.95
2022-12-03T10:30:56.040Z,76.71
2022-12-03T10:32:59.430Z,77.15
2022-12-03T10:35:26.169Z,76.66
2022-12-03T10:37:34.263Z,76.94
2022-12-03T10:40:03.238Z,77.17
2022-12-03T10:42:16.610Z,77.62
2022-12-03T10:44:23.842Z,76.96
2022-12-03T10:46:25.889Z,77.12
2022-12-03T10:48:28.015Z,77.38
2022-12-03T10:50:30.399Z,77.38
2022-12-03T10:52:33.535Z,77.42
2022-12-03T10:54:35.943Z,77.61
2022-12-03T10:56:38.988Z,77.57
2022-12-03T10:58:43.932Z,77.52
2022-12-03T11:00:48.342Z,77.44
2022-12-03T11:02:56.671Z,77.65
2022-12-03T11:05:00.169Z,76.92
2022-12-03T11:07:03.653Z,76.63
2022-12-03T11:09:09.085Z,76.25
2022-12-03T11:11:25.091Z,76.29
2022-12-03T11:13:44.479Z,76.01
2022-12-03T11:15:46.624Z,75.39
2022-12-03T11:17:53.617Z,76.28
2022-12-03T11:19:55.493Z,75.81
2022-12-03T11:22:07.399Z,75.51
2022-12-03T11:24:17.597Z,75.94
2022-12-03T11:26:39.417Z,75.71
2022-12-03T11:28:47.302Z,75.35
2022-12-03T11:30:51.540Z,76.01
2022-12-03T11:33:01.397Z,75.62
2022-12-03T11:35:03.879Z,75.88
2022-12-03T11:37:11.652Z,75.95
2022-12-03T11:39:33.523Z,75.96
2022-12-03T11:41:36.663Z,76.33
2022-12-03T11:43:57.443Z,76.76
2022-12-03T11:46:09.453Z,76.76
2022-12-03T11:48:15.043Z,76.80
2022-12-03T11:50:27.310Z,76.63
2022-12-03T11:52:29.293Z,76.79
2022-12-03T11:54:35.721Z,76.92
2022-12-03T11:56:45.593Z,77.14
2022-12-03T11:58:48.028Z,77.45
2022-12-03T12:00:52.294Z,77.07
2022-12-03T12:02:58.991Z,77.16
2022-12-03T12:05:22.688Z,77.53
2022-12-03T12:07:36.943Z,77.51
2022-12-03T12:09:54.270Z,77.47
2022-12-03T12:12:40.941Z,76.83
2022-12-03T12:14:42.804Z,76.65
2022-12-03T12:16:55.469Z,76.78
2022-12-03T12:18:57.424Z,76.72
2022-12-03T12:21:37.839Z,77.42
2022-12-03T12:23:39.806Z,77.38
2022-12-03T12:25:42.726Z,77.35
2022-12-03T12:27:47.411Z,77.17
2022-12-03T12:29:57.986Z,76.57
2022-12-03T12:32:23.265Z,76.95
2022-12-03T12:34:26.088Z,77.11
2022-12-03T12:36:28.989Z,76.68
2022-12-03T12:38:32.991Z,76.54
2022-12-03T12:40:40.745Z,76.28
2022-12-03T12:42:52.510Z,76.70
2022-12-03T12:44:55.011Z,76.66
2022-12-03T12:46:59.886Z,76.68
2022-12-03T12:49:11.612Z,76.68
2022-12-03T12:51:18.953Z,76.68
2022-12-03T12:53:31.999Z,76.77
2022-12-03T12:55:34.027Z,76.93
2022-12-03T12:57:35.889Z,76.60
2022-12-03T12:59:38.865Z,76.51
2022-12-03T13:01:42.575Z,76.95
2022-12-03T13:03:46.153Z,77.04
2022-12-03T13:05:49.766Z,77.08
2022-12-03T13:07:53.136Z,76.64
2022-12-03T13:09:57.271Z,77.05
2022-12-03T13:12:01.559Z,77.05
2022-12-03T13:14:22.400Z,76.58
2022-12-03T13:16:32.380Z,76.92
2022-12-03T13:18:49.935Z,76.86
2022-12-03T13:20:54.003Z,77.03
2022-12-03T13:22:57.529Z,77.20
2022-12-03T13:25:44.008Z,76.42
2022-12-03T13:27:46.989Z,77.08
2022-12-03T13:30:09.024Z,76.88
2022-12-03T13:32:19.892Z,77.45
2022-12-03T13:34:25.955Z,77.41
2022-12-03T13:36:40.792Z,77.66
2022-12-03T13:38:43.831Z,77.75
2022-12-03T13:40:57.786Z,77.67
2022-12-03T13:42:59.789Z,77.79
2022-12-03T13:45:03.025Z,77.84
2022-12-03T13:47:15.311Z,77.82
2022-12-03T13:49:21.775Z,78.10
2022-12-03T13:51:26.540Z,78.12
2022-12-03T13:53:33.761Z,78.31
2022-12-03T13:55:40.084Z,78.86
2022-12-03T13:57:43.994Z,78.80
2022-12-03T13:59:46.019Z,78.55
2022-12-03T14:01:48.087Z,78.39
2022-12-03T14:03:50.511Z,78.82
2022-12-03T14:05:53.422Z,79.22
2022-12-03T14:07:58.281Z,79.37
2022-12-03T14:10:00.348Z,79.06
2022-12-03T14:12:21.171Z,79.17
2022-12-03T14:14:23.141Z,79.46
2022-12-03T14:16:25.190Z,79.93
2022-12-03T14:18:27.136Z,79.71
2022-12-03T14:20:28.965Z,79.69
2022-12-03T14:22:31.814Z,79.61
2022-12-03T14:24:33.689Z,79.80
2022-12-03T14:26:35.583Z,79.45
2022-12-03T14:28:37.483Z,79.22
2022-12-03T14:30:39.451Z,80.18
2022-12-03T14:32:41.445Z,79.83
2022-12-03T14:34:44.323Z,79.97
2022-12-03T14:36:46.504Z,79.77
2022-12-03T14:38:48.663Z,80.06
2022-12-03T14:40:51.639Z,80.33
2022-12-03T14:42:54.436Z,80.82
2022-12-03T14:44:57.475Z,81.16
2022-12-03T14:46:59.401Z,81.05
2022-12-03T14:49:02.284Z,81.16
2022-12-03T14:51:04.119Z,81.17
2022-12-03T14:53:06.021Z,81.34
2022-12-03T14:55:08.304Z,81.59
2022-12-03T14:57:12.938Z,81.36
2022-12-03T14:59:14.857Z,81.83
2022-12-03T15:01:17.758Z,81.84
2022-12-03T15:03:22.866Z,82.00
2022-12-03T15:05:28.517Z,82.20
2022-12-03T15:07:32.236Z,82.57
2022-12-03T15:09:34.399Z,82.15
2022-12-03T15:11:41.392Z,82.70
2022-12-03T15:13:46.500Z,82.57
2022-12-03T15:15:48.426Z,82.81
2022-12-03T15:17:52.344Z,83.03
2022-12-03T15:19:59.025Z,82.64
2022-12-03T15:22:03.244Z,82.99
2022-12-03T15:24:08.309Z,83.27
2022-12-03T15:26:10.120Z,82.97
2022-12-03T15:28:12.124Z,83.10
2022-12-03T15:30:16.295Z,82.97
2022-12-03T15:32:18.217Z,83.62
2022-12-03T15:34:22.795Z,83.46
2022-12-03T15:36:25.109Z,83.82
2022-12-03T15:38:28.059Z,83.51
2022-12-03T15:40:30.341Z,83.32
2022-12-03T15:42:32.216Z,83.59
2022-12-03T15:44:34.366Z,83.39
2022-12-03T15:46:36.399Z,83.58
2022-12-03T15:48:38.268Z,83.74
2022-12-03T15:50:42.391Z,83.42
2022-12-03T15:52:44.404Z,83.71
2022-12-03T15:54:46.616Z,83.92
2022-12-03T15:56:52.730Z,83.58
2022-12-03T15:58:57.494Z,83.90
2022-12-03T16:01:02.401Z,83.94
2022-12-03T16:03:06.087Z,83.70
2022-12-03T16:05:13.302Z,83.73
2022-12-03T16:07:17.223Z,83.84
2022-12-03T16:09:23.761Z,83.96
2022-12-03T16:11:30.848Z,83.79
2022-12-03T16:13:32.781Z,83.82
2022-12-03T16:15:35.409Z,83.67
2022-12-03T16:17:37.363Z,83.62
2022-12-03T16:19:39.281Z,83.94
2022-12-03T16:21:41.175Z,83.89
2022-12-03T16:23:44.097Z,84.04
2022-12-03T16:25:48.980Z,83.85
2022-12-03T16:27:51.110Z,83.85
2022-12-03T16:29:53.401Z,84.30
2022-12-03T16:31:55.658Z,84.17
2022-12-03T16:33:58.592Z,83.99
2022-12-03T16:36:00.853Z,83.90
2022-12-03T16:38:02.830Z,84.31
2022-12-03T16:40:06.397Z,84.01
2022-12-03T16:42:15.458Z,84.21
2022-12-03T16:44:32.121Z,84.01
2022-12-03T16:46:38.193Z,84.41
2022-12-03T16:48:45.034Z,83.95
2022-12-03T16:50:48.986Z,83.98
2022-12-03T16:52:50.927Z,84.20
2022-12-03T16:54:54.792Z,84.15
2022-12-03T16:56:57.109Z,83.99
2022-12-03T16:59:02.271Z,84.41
2022-12-03T17:01:05.431Z,83.92
2022-12-03T17:03:08.418Z,84.26
2022-12-03T17:05:20.746Z,84.40
2022-12-03T17:07:22.607Z,84.27
2022-12-03T17:09:24.686Z,84.02
2022-12-03T17:11:27.605Z,84.63
2022-12-03T17:13:32.779Z,84.62
2022-12-03T17:15:34.833Z,84.19
2022-12-03T17:17:39.664Z,84.43
2022-12-03T17:19:42.386Z,84.28
2022-12-03T17:21:46.567Z,84.49
2022-12-03T17:23:56.363Z,84.70
2022-12-03T17:26:00.178Z,84.12
2022-12-03T17:28:02.690Z,84.47
2022-12-03T17:30:05.628Z,84.37
2022-12-03T17:32:08.332Z,84.37
2022-12-03T17:34:10.381Z,84.35
2022-12-03T17:36:15.444Z,84.92
2022-12-03T17:38:18.342Z,84.82
2022-12-03T17:40:21.512Z,84.36
2022-12-03T17:42:23.481Z,84.78
2022-12-03T17:44:25.428Z,84.40
2022-12-03T17:46:28.401Z,84.66
2022-12-03T17:48:31.495Z,84.70
2022-12-03T17:50:33.503Z,84.61
2022-12-03T17:52:35.407Z,84.41
2022-12-03T17:55:01.804Z,84.43
2022-12-03T17:57:03.138Z,84.17
2022-12-03T17:59:06.986Z,84.38
2022-12-03T18:01:10.896Z,84.27
2022-12-03T18:03:12.836Z,84.00
2022-12-03T18:05:15.866Z,84.04
2022-12-03T18:07:18.770Z,83.98
2022-12-03T18:09:21.226Z,84.13
2022-12-03T18:11:26.903Z,84.05
2022-12-03T18:13:29.857Z,83.63
2022-12-03T18:15:33.773Z,83.93
2022-12-03T18:17:35.836Z,84.35
2022-12-03T18:19:56.102Z,84.26
2022-12-03T18:21:58.445Z,83.85
2022-12-03T18:24:02.453Z,84.13
2022-12-03T18:26:06.281Z,83.66
2022-12-03T18:28:08.210Z,83.60
2022-12-03T18:30:15.207Z,83.52
2022-12-03T18:32:28.328Z,83.54
2022-12-03T18:34:31.519Z,83.92
2022-12-03T18:36:36.309Z,83.54
2022-12-03T18:38:39.303Z,83.58
2022-12-03T18:40:42.924Z,83.42
2022-12-03T18:42:47.947Z,83.10
2022-12-03T18:44:52.418Z,82.93
2022-12-03T18:46:54.927Z,82.86
2022-12-03T18:49:03.302Z,83.09
2022-12-03T18:51:24.747Z,83.22
2022-12-03T18:53:27.079Z,83.42
2022-12-03T18:55:33.745Z,83.68
2022-12-03T18:57:38.284Z,83.36
2022-12-03T18:59:41.103Z,83.15
2022-12-03T19:01:43.242Z,83.26
2022-12-03T19:03:45.624Z,83.00
2022-12-03T19:05:47.648Z,83.09
2022-12-03T19:07:54.927Z,83.38
2022-12-03T19:09:57.699Z,83.16
2022-12-03T19:12:12.864Z,83.20
2022-12-03T19:14:17.007Z,83.11
2022-12-03T19:16:20.601Z,83.44
2022-12-03T19:18:25.580Z,83.12
2022-12-03T19:20:28.052Z,83.05
2022-12-03T19:22:31.421Z,83.16
2022-12-03T19:24:39.374Z,83.11
2022-12-03T19:26:42.941Z,82.38
2022-12-03T19:28:45.429Z,82.80
2022-12-03T19:31:11.909Z,82.41
2022-12-03T19:33:18.155Z,82.18
2022-12-03T19:35:22.044Z,82.32
2022-12-03T19:37:34.540Z,82.47
2022-12-03T19:39:37.468Z,82.63
2022-12-03T19:41:42.550Z,82.73
2022-12-03T19:43:53.476Z,82.48
2022-12-03T19:45:58.108Z,82.11
2022-12-03T19:48:01.563Z,82.02
2022-12-03T19:50:05.855Z,82.21
2022-12-03T19:52:08.271Z,82.12
2022-12-03T19:54:16.676Z,81.96
2022-12-03T19:56:21.856Z,81.56
2022-12-03T19:58:31.571Z,81.94
2022-12-03T20:00:40.965Z,82.38
2022-12-03T20:02:43.720Z,81.79
2022-12-03T20:04:46.094Z,81.37
2022-12-03T20:06:53.328Z,80.92
2022-12-03T20:08:57.993Z,80.31
2022-12-03T20:11:21.859Z,80.21
2022-12-03T20:13:26.183Z,80.13
2022-12-03T20:15:36.009Z,79.73
2022-12-03T20:17:38.328Z,80.09
2022-12-03T20:19:40.728Z,79.88
2022-12-03T20:21:44.210Z,80.03
2022-12-03T20:23:47.657Z,79.74
2022-12-03T20:25:50.004Z,79.33
2022-12-03T20:27:52.082Z,79.38
2022-12-03T20:29:54.647Z,79.65
2022-12-03T20:31:56.990Z,79.97
2022-12-03T20:34:02.623Z,80.48
2022-12-03T20:36:05.525Z,81.10
2022-12-03T20:38:09.234Z,81.72
2022-12-03T20:40:12.091Z,81.65
2022-12-03T20:42:14.413Z,82.06
2022-12-03T20:44:17.794Z,81.55
2022-12-03T20:46:26.518Z,81.96
2022-12-03T20:48:33.019Z,81.90
2022-12-03T20:50:37.919Z,81.92
2022-12-03T20:53:03.373Z,81.51
2022-12-03T20:55:07.892Z,81.61
2022-12-03T20:57:18.219Z,82.05
2022-12-03T20:59:22.571Z,81.90
2022-12-03T21:01:36.650Z,81.92
2022-12-03T21:03:54.392Z,81.93
2022-12-03T21:06:01.764Z,82.05
2022-12-03T21:08:04.049Z,81.82
2022-12-03T21:10:29.501Z,82.17
2022-12-03T21:12:32.771Z,81.87
2022-12-03T21:14:36.204Z,81.97
2022-12-03T21:19:10.748Z,81.65
2022-12-03T21:21:14.716Z,81.31
2022-12-03T21:23:17.137Z,81.77
2022-12-03T21:25:19.264Z,81.69
2022-12-03T21:27:29.420Z,82.22
2022-12-03T21:29:31.393Z,82.30
2022-12-03T21:31:33.432Z,82.26
2022-12-03T21:33:35.644Z,82.03
2022-12-03T21:35:45.468Z,81.84
2022-12-03T21:40:29.206Z,81.79
2022-12-03T21:43:02.459Z,82.00
2022-12-03T21:45:32.660Z,82.06
2022-12-03T21:53:46.242Z,82.33
2022-12-03T21:56:50.888Z,82.22
2022-12-03T21:59:09.907Z,82.53
2022-12-03T22:01:34.419Z,82.37
2022-12-03T22:03:37.693Z,82.58
2022-12-03T22:05:59.697Z,82.75
2022-12-03T22:08:05.021Z,82.67
2022-12-03T22:10:44.333Z,82.69
2022-12-03T22:12:58.572Z,82.85
2022-12-03T22:15:20.487Z,83.08
2022-12-03T22:17:34.564Z,83.01
2022-12-03T22:20:37.553Z,83.14
2022-12-03T22:25:25.062Z,83.26
2022-12-03T22:27:30.091Z,83.16
2022-12-03T22:29:54.100Z,83.45
2022-12-03T22:32:06.774Z,83.50
2022-12-03T22:34:21.926Z,83.55
2022-12-03T22:36:27.866Z,83.77
2022-12-03T22:42:16.123Z,83.43
2022-12-03T22:44:47.185Z,83.81
2022-12-03T22:47:06.930Z,83.51
2022-12-03T22:49:23.997Z,83.95
2022-12-03T22:51:29.221Z,83.80
2022-12-03T22:53:37.175Z,83.82
2022-12-03T22:55:45.263Z,83.50
2022-12-03T22:57:48.540Z,83.68
2022-12-03T23:00:03.679Z,83.82
2022-12-03T23:02:30.709Z,83.49
2022-12-03T23:04:32.638Z,83.56
2022-12-03T23:10:08.493Z,83.74
2022-12-03T23:14:58.869Z,83.87
2022-12-03T23:17:11.713Z,84.14
2022-12-03T23:19:15.099Z,84.37
2022-12-03T23:21:37.404Z,83.76
2022-12-03T23:23:39.259Z,84.23
2022-12-03T23:26:11.675Z,84.08
2022-12-03T23:28:17.509Z,83.86
2022-12-03T23:30:19.491Z,84.35
2022-12-03T23:32:24.119Z,84.45
2022-12-03T23:34:40.389Z,84.49
2022-12-03T23:36:48.197Z,84.56
2022-12-03T23:38:51.260Z,84.37
2022-12-03T23:41:30.840Z,84.48
2022-12-03T23:43:34.194Z,84.36
2022-12-03T23:45:39.103Z,84.68
2022-12-03T23:47:58.282Z,84.64
2022-12-03T23:50:00.350Z,84.63
2022-12-03T23:52:06.126Z,84.77
2022-12-03T23:54:18.736Z,84.52
2022-12-03T23:56:24.028Z,84.20
2022-12-03T23:58:48.471Z,84.03
